sensor_id;sensor_type;location;lat;lon;timestamp;P1;durP1;ratioP1;P2;durP2;ratioP2
6757;SDS011;3416;53.074;8.822;2024-03-02T00:01:36;24.83;;;16.77;;
6757;SDS011;3416;53.074;8.822;2024-03-02T00:04:03;22.23;;;16.70;;
6757;SDS011;3416;53.074;8.822;2024-03-02T00:06:33;28.73;;;19.65;;
6757;SDS011;3416;53.074;8.822;2024-03-02T00:09:00;27.55;;;16.73;;
6757;SDS011;3416;53.074;8.822;2024-03-02T00:11:27;21.88;;;14.15;;
6757;SDS011;3416;53.074;8.822;2024-03-02T00:13:54;21.42;;;14.73;;
6757;SDS011;3416;53.074;8.822;2024-03-02T00:16:21;21.08;;;16.15;;
6757;SDS011;3416;53.074;8.822;2024-03-02T00:18:50;25.35;;;17.92;;
6757;SDS011;3416;53.074;8.822;2024-03-02T00:21:17;24.25;;;17.27;;
6757;SDS011;3416;53.074;8.822;2024-03-02T00:23:47;23.30;;;15.68;;
6757;SDS011;3416;53.074;8.822;2024-03-02T00:26:17;21.70;;;15.90;;
6757;SDS011;3416;53.074;8.822;2024-03-02T00:28:44;23.02;;;16.55;;
6757;SDS011;3416;53.074;8.822;2024-03-02T00:31:18;18.80;;;15.70;;
6757;SDS011;3416;53.074;8.822;2024-03-02T00:33:46;23.50;;;17.27;;
6757;SDS011;3416;53.074;8.822;2024-03-02T00:36:16;20.42;;;15.75;;
6757;SDS011;3416;53.074;8.822;2024-03-02T00:38:48;21.90;;;16.95;;
6757;SDS011;3416;53.074;8.822;2024-03-02T00:41:17;22.02;;;16.23;;
6757;SDS011;3416;53.074;8.822;2024-03-02T00:43:49;22.55;;;16.40;;
6757;SDS011;3416;53.074;8.822;2024-03-02T00:46:24;19.30;;;14.73;;
6757;SDS011;3416;53.074;8.822;2024-03-02T00:48:52;21.90;;;16.48;;
6757;SDS011;3416;53.074;8.822;2024-03-02T00:51:23;19.73;;;13.70;;
6757;SDS011;3416;53.074;8.822;2024-03-02T00:53:51;20.38;;;14.95;;
6757;SDS011;3416;53.074;8.822;2024-03-02T00:56:20;18.35;;;13.98;;
6757;SDS011;3416;53.074;8.822;2024-03-02T00:58:48;19.00;;;14.50;;
6757;SDS011;3416;53.074;8.822;2024-03-02T01:01:15;21.80;;;14.02;;
6757;SDS011;3416;53.074;8.822;2024-03-02T01:03:43;21.85;;;16.08;;
6757;SDS011;3416;53.074;8.822;2024-03-02T01:06:10;21.33;;;16.25;;
6757;SDS011;3416;53.074;8.822;2024-03-02T01:08:38;18.10;;;14.35;;
6757;SDS011;3416;53.074;8.822;2024-03-02T01:11:05;23.55;;;16.38;;
6757;SDS011;3416;53.074;8.822;2024-03-02T01:13:32;19.42;;;16.33;;
6757;SDS011;3416;53.074;8.822;2024-03-02T01:15:59;23.67;;;15.57;;
6757;SDS011;3416;53.074;8.822;2024-03-02T01:18:27;19.90;;;15.27;;
6757;SDS011;3416;53.074;8.822;2024-03-02T01:20:55;20.10;;;13.88;;
6757;SDS011;3416;53.074;8.822;2024-03-02T01:23:22;23.55;;;15.50;;
6757;SDS011;3416;53.074;8.822;2024-03-02T01:25:51;17.92;;;13.40;;
6757;SDS011;3416;53.074;8.822;2024-03-02T01:28:19;18.33;;;14.05;;
6757;SDS011;3416;53.074;8.822;2024-03-02T01:30:46;20.25;;;14.20;;
6757;SDS011;3416;53.074;8.822;2024-03-02T01:33:14;22.60;;;15.07;;
6757;SDS011;3416;53.074;8.822;2024-03-02T01:35:41;19.70;;;14.52;;
6757;SDS011;3416;53.074;8.822;2024-03-02T01:38:08;18.30;;;13.30;;
6757;SDS011;3416;53.074;8.822;2024-03-02T01:40:35;19.30;;;13.15;;
6757;SDS011;3416;53.074;8.822;2024-03-02T01:43:05;20.58;;;13.88;;
6757;SDS011;3416;53.074;8.822;2024-03-02T01:45:32;20.33;;;13.68;;
6757;SDS011;3416;53.074;8.822;2024-03-02T01:48:00;18.83;;;15.18;;
6757;SDS011;3416;53.074;8.822;2024-03-02T01:50:33;18.52;;;12.98;;
6757;SDS011;3416;53.074;8.822;2024-03-02T01:53:01;19.55;;;13.88;;
6757;SDS011;3416;53.074;8.822;2024-03-02T01:55:28;15.77;;;11.15;;
6757;SDS011;3416;53.074;8.822;2024-03-02T01:57:55;15.18;;;11.30;;
6757;SDS011;3416;53.074;8.822;2024-03-02T02:00:24;19.75;;;13.45;;
6757;SDS011;3416;53.074;8.822;2024-03-02T02:02:51;16.23;;;12.43;;
6757;SDS011;3416;53.074;8.822;2024-03-02T02:05:19;19.05;;;13.20;;
6757;SDS011;3416;53.074;8.822;2024-03-02T02:07:46;20.60;;;14.68;;
6757;SDS011;3416;53.074;8.822;2024-03-02T02:10:14;19.75;;;15.65;;
6757;SDS011;3416;53.074;8.822;2024-03-02T02:12:41;19.75;;;15.07;;
6757;SDS011;3416;53.074;8.822;2024-03-02T02:18:04;17.77;;;14.63;;
6757;SDS011;3416;53.074;8.822;2024-03-02T02:20:31;17.55;;;13.75;;
6757;SDS011;3416;53.074;8.822;2024-03-02T02:23:00;18.58;;;12.40;;
6757;SDS011;3416;53.074;8.822;2024-03-02T02:25:28;18.17;;;12.77;;
6757;SDS011;3416;53.074;8.822;2024-03-02T02:27:56;16.38;;;12.63;;
6757;SDS011;3416;53.074;8.822;2024-03-02T02:30:24;15.93;;;13.05;;
6757;SDS011;3416;53.074;8.822;2024-03-02T02:32:53;19.73;;;13.65;;
6757;SDS011;3416;53.074;8.822;2024-03-02T02:35:20;21.75;;;15.43;;
6757;SDS011;3416;53.074;8.822;2024-03-02T02:37:49;20.40;;;15.35;;
6757;SDS011;3416;53.074;8.822;2024-03-02T02:40:18;13.80;;;12.15;;
6757;SDS011;3416;53.074;8.822;2024-03-02T02:42:45;20.77;;;14.18;;
6757;SDS011;3416;53.074;8.822;2024-03-02T02:45:12;21.77;;;15.63;;
6757;SDS011;3416;53.074;8.822;2024-03-02T02:47:39;19.83;;;15.25;;
6757;SDS011;3416;53.074;8.822;2024-03-02T02:50:07;22.08;;;15.18;;
6757;SDS011;3416;53.074;8.822;2024-03-02T02:52:35;15.63;;;11.43;;
6757;SDS011;3416;53.074;8.822;2024-03-02T02:55:05;17.17;;;13.55;;
6757;SDS011;3416;53.074;8.822;2024-03-02T02:57:35;22.35;;;15.90;;
6757;SDS011;3416;53.074;8.822;2024-03-02T03:00:05;21.77;;;16.63;;
6757;SDS011;3416;53.074;8.822;2024-03-02T03:02:36;25.85;;;18.65;;
6757;SDS011;3416;53.074;8.822;2024-03-02T03:05:04;32.20;;;21.35;;
6757;SDS011;3416;53.074;8.822;2024-03-02T03:07:32;31.35;;;20.95;;
6757;SDS011;3416;53.074;8.822;2024-03-02T03:09:59;28.63;;;20.05;;
6757;SDS011;3416;53.074;8.822;2024-03-02T03:12:27;26.45;;;18.38;;
6757;SDS011;3416;53.074;8.822;2024-03-02T03:14:55;24.92;;;17.10;;
6757;SDS011;3416;53.074;8.822;2024-03-02T03:17:22;29.33;;;18.67;;
6757;SDS011;3416;53.074;8.822;2024-03-02T03:19:49;33.72;;;22.10;;
6757;SDS011;3416;53.074;8.822;2024-03-02T03:22:16;31.35;;;21.50;;
6757;SDS011;3416;53.074;8.822;2024-03-02T03:24:43;25.55;;;19.73;;
6757;SDS011;3416;53.074;8.822;2024-03-02T03:27:12;31.40;;;20.70;;
6757;SDS011;3416;53.074;8.822;2024-03-02T03:29:39;26.77;;;20.35;;
6757;SDS011;3416;53.074;8.822;2024-03-02T03:32:07;24.70;;;17.55;;
6757;SDS011;3416;53.074;8.822;2024-03-02T03:34:34;25.73;;;17.65;;
6757;SDS011;3416;53.074;8.822;2024-03-02T03:37:02;32.88;;;17.27;;
6757;SDS011;3416;53.074;8.822;2024-03-02T03:39:29;25.98;;;20.10;;
6757;SDS011;3416;53.074;8.822;2024-03-02T03:41:56;29.90;;;18.88;;
6757;SDS011;3416;53.074;8.822;2024-03-02T03:44:23;33.53;;;19.05;;
6757;SDS011;3416;53.074;8.822;2024-03-02T03:46:50;23.40;;;16.52;;
6757;SDS011;3416;53.074;8.822;2024-03-02T03:49:19;24.15;;;15.32;;
6757;SDS011;3416;53.074;8.822;2024-03-02T03:51:46;19.70;;;16.50;;
6757;SDS011;3416;53.074;8.822;2024-03-02T03:54:13;18.83;;;13.75;;
6757;SDS011;3416;53.074;8.822;2024-03-02T03:56:39;17.98;;;14.30;;
6757;SDS011;3416;53.074;8.822;2024-03-02T03:59:17;24.35;;;18.90;;
6757;SDS011;3416;53.074;8.822;2024-03-02T04:01:44;26.20;;;16.85;;
6757;SDS011;3416;53.074;8.822;2024-03-02T04:04:11;21.05;;;15.75;;
6757;SDS011;3416;53.074;8.822;2024-03-02T04:06:47;25.33;;;16.50;;
6757;SDS011;3416;53.074;8.822;2024-03-02T04:09:14;24.90;;;14.40;;
6757;SDS011;3416;53.074;8.822;2024-03-02T04:11:41;19.00;;;14.40;;
6757;SDS011;3416;53.074;8.822;2024-03-02T04:14:08;20.20;;;13.88;;
6757;SDS011;3416;53.074;8.822;2024-03-02T04:16:35;18.17;;;13.98;;
6757;SDS011;3416;53.074;8.822;2024-03-02T04:19:02;20.48;;;14.15;;
6757;SDS011;3416;53.074;8.822;2024-03-02T04:21:34;17.17;;;14.30;;
6757;SDS011;3416;53.074;8.822;2024-03-02T04:24:02;18.45;;;14.30;;
6757;SDS011;3416;53.074;8.822;2024-03-02T04:26:29;20.40;;;15.63;;
6757;SDS011;3416;53.074;8.822;2024-03-02T04:28:56;20.90;;;14.38;;
6757;SDS011;3416;53.074;8.822;2024-03-02T04:31:23;16.33;;;13.77;;
6757;SDS011;3416;53.074;8.822;2024-03-02T04:33:50;22.35;;;15.23;;
6757;SDS011;3416;53.074;8.822;2024-03-02T04:36:22;19.27;;;13.68;;
6757;SDS011;3416;53.074;8.822;2024-03-02T04:38:48;19.88;;;15.55;;
6757;SDS011;3416;53.074;8.822;2024-03-02T04:41:17;18.83;;;13.77;;
6757;SDS011;3416;53.074;8.822;2024-03-02T04:43:45;20.13;;;14.63;;
6757;SDS011;3416;53.074;8.822;2024-03-02T04:46:12;19.52;;;15.13;;
6757;SDS011;3416;53.074;8.822;2024-03-02T04:48:39;21.20;;;14.10;;
6757;SDS011;3416;53.074;8.822;2024-03-02T04:51:06;19.63;;;14.65;;
6757;SDS011;3416;53.074;8.822;2024-03-02T04:53:33;14.82;;;12.57;;
6757;SDS011;3416;53.074;8.822;2024-03-02T04:56:00;18.48;;;13.30;;
6757;SDS011;3416;53.074;8.822;2024-03-02T04:58:45;16.48;;;13.05;;
6757;SDS011;3416;53.074;8.822;2024-03-02T05:01:12;16.17;;;12.32;;
6757;SDS011;3416;53.074;8.822;2024-03-02T05:03:39;17.48;;;13.25;;
6757;SDS011;3416;53.074;8.822;2024-03-02T05:06:07;15.88;;;12.73;;
6757;SDS011;3416;53.074;8.822;2024-03-02T05:08:34;19.83;;;13.25;;
6757;SDS011;3416;53.074;8.822;2024-03-02T05:11:01;15.50;;;12.30;;
6757;SDS011;3416;53.074;8.822;2024-03-02T05:13:42;20.83;;;12.88;;
6757;SDS011;3416;53.074;8.822;2024-03-02T05:16:10;17.63;;;13.52;;
6757;SDS011;3416;53.074;8.822;2024-03-02T05:18:37;18.45;;;14.23;;
6757;SDS011;3416;53.074;8.822;2024-03-02T05:21:04;16.65;;;12.20;;
6757;SDS011;3416;53.074;8.822;2024-03-02T05:23:31;15.02;;;12.73;;
6757;SDS011;3416;53.074;8.822;2024-03-02T05:25:59;17.10;;;12.10;;
6757;SDS011;3416;53.074;8.822;2024-03-02T05:28:26;17.08;;;13.50;;
6757;SDS011;3416;53.074;8.822;2024-03-02T05:30:53;17.35;;;13.20;;
6757;SDS011;3416;53.074;8.822;2024-03-02T05:33:22;15.80;;;12.35;;
6757;SDS011;3416;53.074;8.822;2024-03-02T05:35:49;17.23;;;13.18;;
6757;SDS011;3416;53.074;8.822;2024-03-02T05:38:16;17.10;;;14.13;;
6757;SDS011;3416;53.074;8.822;2024-03-02T05:40:43;15.80;;;13.20;;
6757;SDS011;3416;53.074;8.822;2024-03-02T05:43:10;17.98;;;12.73;;
6757;SDS011;3416;53.074;8.822;2024-03-02T05:45:37;17.40;;;13.75;;
6757;SDS011;3416;53.074;8.822;2024-03-02T05:48:05;15.75;;;13.18;;
6757;SDS011;3416;53.074;8.822;2024-03-02T05:50:34;18.77;;;12.50;;
6757;SDS011;3416;53.074;8.822;2024-03-02T05:53:00;16.13;;;12.70;;
6757;SDS011;3416;53.074;8.822;2024-03-02T05:55:27;19.65;;;14.57;;
6757;SDS011;3416;53.074;8.822;2024-03-02T05:57:54;20.75;;;15.18;;
6757;SDS011;3416;53.074;8.822;2024-03-02T06:00:36;18.77;;;15.13;;
6757;SDS011;3416;53.074;8.822;2024-03-02T06:03:03;15.20;;;13.30;;
6757;SDS011;3416;53.074;8.822;2024-03-02T06:05:31;18.50;;;13.52;;
6757;SDS011;3416;53.074;8.822;2024-03-02T06:07:59;18.25;;;14.25;;
6757;SDS011;3416;53.074;8.822;2024-03-02T06:10:26;18.48;;;14.30;;
6757;SDS011;3416;53.074;8.822;2024-03-02T06:12:53;21.25;;;14.68;;
6757;SDS011;3416;53.074;8.822;2024-03-02T06:15:20;17.25;;;13.73;;
6757;SDS011;3416;53.074;8.822;2024-03-02T06:17:47;18.08;;;12.93;;
6757;SDS011;3416;53.074;8.822;2024-03-02T06:20:14;19.00;;;14.18;;
6757;SDS011;3416;53.074;8.822;2024-03-02T06:22:41;17.95;;;12.50;;
6757;SDS011;3416;53.074;8.822;2024-03-02T06:25:10;19.90;;;15.80;;
6757;SDS011;3416;53.074;8.822;2024-03-02T06:27:37;19.42;;;15.32;;
6757;SDS011;3416;53.074;8.822;2024-03-02T06:30:04;21.67;;;15.57;;
6757;SDS011;3416;53.074;8.822;2024-03-02T06:32:31;17.35;;;14.38;;
6757;SDS011;3416;53.074;8.822;2024-03-02T06:34:58;20.85;;;13.75;;
6757;SDS011;3416;53.074;8.822;2024-03-02T06:37:26;17.60;;;13.35;;
6757;SDS011;3416;53.074;8.822;2024-03-02T06:39:53;20.65;;;15.40;;
6757;SDS011;3416;53.074;8.822;2024-03-02T06:42:21;23.23;;;15.00;;
6757;SDS011;3416;53.074;8.822;2024-03-02T06:44:49;16.58;;;12.70;;
6757;SDS011;3416;53.074;8.822;2024-03-02T06:47:16;18.17;;;14.27;;
6757;SDS011;3416;53.074;8.822;2024-03-02T06:49:45;25.70;;;14.93;;
6757;SDS011;3416;53.074;8.822;2024-03-02T06:52:12;18.90;;;15.23;;
6757;SDS011;3416;53.074;8.822;2024-03-02T06:54:39;22.88;;;16.88;;
6757;SDS011;3416;53.074;8.822;2024-03-02T06:57:06;19.20;;;14.02;;
6757;SDS011;3416;53.074;8.822;2024-03-02T06:59:34;15.07;;;13.30;;
6757;SDS011;3416;53.074;8.822;2024-03-02T07:02:01;16.65;;;13.05;;
6757;SDS011;3416;53.074;8.822;2024-03-02T07:04:28;18.40;;;15.07;;
6757;SDS011;3416;53.074;8.822;2024-03-02T07:06:55;16.33;;;13.38;;
6757;SDS011;3416;53.074;8.822;2024-03-02T07:09:22;16.55;;;12.13;;
6757;SDS011;3416;53.074;8.822;2024-03-02T07:11:49;20.63;;;14.60;;
6757;SDS011;3416;53.074;8.822;2024-03-02T07:14:16;17.45;;;14.02;;
6757;SDS011;3416;53.074;8.822;2024-03-02T07:16:45;24.60;;;14.95;;
6757;SDS011;3416;53.074;8.822;2024-03-02T07:19:12;16.30;;;13.23;;
6757;SDS011;3416;53.074;8.822;2024-03-02T07:21:39;16.58;;;12.68;;
6757;SDS011;3416;53.074;8.822;2024-03-02T07:24:07;19.65;;;13.90;;
6757;SDS011;3416;53.074;8.822;2024-03-02T07:26:37;14.98;;;12.70;;
6757;SDS011;3416;53.074;8.822;2024-03-02T07:29:04;14.90;;;13.05;;
6757;SDS011;3416;53.074;8.822;2024-03-02T07:31:31;15.52;;;12.57;;
6757;SDS011;3416;53.074;8.822;2024-03-02T07:34:00;18.88;;;12.57;;
6757;SDS011;3416;53.074;8.822;2024-03-02T07:36:27;19.33;;;14.80;;
6757;SDS011;3416;53.074;8.822;2024-03-02T07:38:54;15.90;;;13.43;;
6757;SDS011;3416;53.074;8.822;2024-03-02T07:41:21;19.58;;;13.75;;
6757;SDS011;3416;53.074;8.822;2024-03-02T07:43:48;18.90;;;12.57;;
6757;SDS011;3416;53.074;8.822;2024-03-02T07:46:15;14.68;;;12.38;;
6757;SDS011;3416;53.074;8.822;2024-03-02T07:48:42;18.55;;;12.73;;
6757;SDS011;3416;53.074;8.822;2024-03-02T07:51:11;19.23;;;13.30;;
6757;SDS011;3416;53.074;8.822;2024-03-02T07:53:39;21.92;;;14.65;;
6757;SDS011;3416;53.074;8.822;2024-03-02T07:56:06;23.00;;;18.33;;
6757;SDS011;3416;53.074;8.822;2024-03-02T07:58:33;18.10;;;14.70;;
6757;SDS011;3416;53.074;8.822;2024-03-02T08:01:00;18.30;;;14.85;;
6757;SDS011;3416;53.074;8.822;2024-03-02T08:03:27;19.83;;;15.60;;
6757;SDS011;3416;53.074;8.822;2024-03-02T08:05:54;21.63;;;14.68;;
6757;SDS011;3416;53.074;8.822;2024-03-02T08:08:23;17.40;;;13.98;;
6757;SDS011;3416;53.074;8.822;2024-03-02T08:10:50;19.95;;;15.27;;
6757;SDS011;3416;53.074;8.822;2024-03-02T08:13:17;23.33;;;16.30;;
6757;SDS011;3416;53.074;8.822;2024-03-02T08:15:44;21.50;;;16.35;;
6757;SDS011;3416;53.074;8.822;2024-03-02T08:18:11;21.15;;;14.35;;
6757;SDS011;3416;53.074;8.822;2024-03-02T08:20:39;17.80;;;14.32;;
6757;SDS011;3416;53.074;8.822;2024-03-02T08:23:06;20.00;;;14.27;;
6757;SDS011;3416;53.074;8.822;2024-03-02T08:25:35;21.88;;;16.63;;
6757;SDS011;3416;53.074;8.822;2024-03-02T08:28:03;21.25;;;15.90;;
6757;SDS011;3416;53.074;8.822;2024-03-02T08:30:31;20.48;;;16.73;;
6757;SDS011;3416;53.074;8.822;2024-03-02T08:32:58;21.17;;;14.75;;
6757;SDS011;3416;53.074;8.822;2024-03-02T08:35:25;20.33;;;16.23;;
6757;SDS011;3416;53.074;8.822;2024-03-02T08:37:53;24.60;;;15.60;;
6757;SDS011;3416;53.074;8.822;2024-03-02T08:40:19;18.13;;;15.00;;
6757;SDS011;3416;53.074;8.822;2024-03-02T08:42:47;18.67;;;14.43;;
6757;SDS011;3416;53.074;8.822;2024-03-02T08:47:42;20.70;;;15.10;;
6757;SDS011;3416;53.074;8.822;2024-03-02T08:50:09;15.45;;;12.80;;
6757;SDS011;3416;53.074;8.822;2024-03-02T08:52:36;17.80;;;14.30;;
6757;SDS011;3416;53.074;8.822;2024-03-02T08:55:03;17.42;;;13.68;;
6757;SDS011;3416;53.074;8.822;2024-03-02T08:57:32;15.97;;;13.10;;
6757;SDS011;3416;53.074;8.822;2024-03-02T09:00:01;16.67;;;13.47;;
6757;SDS011;3416;53.074;8.822;2024-03-02T09:02:28;15.50;;;12.67;;
6757;SDS011;3416;53.074;8.822;2024-03-02T09:04:55;16.77;;;13.10;;
6757;SDS011;3416;53.074;8.822;2024-03-02T09:07:22;15.90;;;13.57;;
6757;SDS011;3416;53.074;8.822;2024-03-02T09:09:49;18.40;;;13.33;;
6757;SDS011;3416;53.074;8.822;2024-03-02T09:12:17;16.57;;;11.90;;
6757;SDS011;3416;53.074;8.822;2024-03-02T09:14:44;19.27;;;13.33;;
6757;SDS011;3416;53.074;8.822;2024-03-02T09:17:13;20.47;;;14.10;;
6757;SDS011;3416;53.074;8.822;2024-03-02T09:19:40;13.50;;;11.07;;
6757;SDS011;3416;53.074;8.822;2024-03-02T09:22:07;16.90;;;12.43;;
6757;SDS011;3416;53.074;8.822;2024-03-02T09:24:34;14.00;;;11.63;;
6757;SDS011;3416;53.074;8.822;2024-03-02T09:27:01;14.83;;;12.20;;
6757;SDS011;3416;53.074;8.822;2024-03-02T09:29:29;14.43;;;11.50;;
6757;SDS011;3416;53.074;8.822;2024-03-02T09:31:55;14.80;;;12.40;;
6757;SDS011;3416;53.074;8.822;2024-03-02T09:34:24;15.93;;;12.20;;
6757;SDS011;3416;53.074;8.822;2024-03-02T09:36:51;18.37;;;13.70;;
6757;SDS011;3416;53.074;8.822;2024-03-02T09:39:18;14.67;;;12.70;;
6757;SDS011;3416;53.074;8.822;2024-03-02T09:41:45;15.10;;;12.90;;
6757;SDS011;3416;53.074;8.822;2024-03-02T09:44:13;18.50;;;12.37;;
6757;SDS011;3416;53.074;8.822;2024-03-02T09:46:40;15.63;;;11.13;;
6757;SDS011;3416;53.074;8.822;2024-03-02T09:49:09;23.13;;;13.43;;
6757;SDS011;3416;53.074;8.822;2024-03-02T09:51:38;13.00;;;10.57;;
6757;SDS011;3416;53.074;8.822;2024-03-02T09:54:06;18.17;;;12.60;;
6757;SDS011;3416;53.074;8.822;2024-03-02T09:56:34;16.43;;;12.43;;
6757;SDS011;3416;53.074;8.822;2024-03-02T09:59:01;13.90;;;10.70;;
6757;SDS011;3416;53.074;8.822;2024-03-02T10:01:28;15.93;;;12.13;;
6757;SDS011;3416;53.074;8.822;2024-03-02T10:03:55;14.90;;;11.70;;
6757;SDS011;3416;53.074;8.822;2024-03-02T10:06:25;14.30;;;11.30;;
6757;SDS011;3416;53.074;8.822;2024-03-02T10:08:54;15.33;;;12.20;;
6757;SDS011;3416;53.074;8.822;2024-03-02T10:11:25;13.87;;;11.87;;
6757;SDS011;3416;53.074;8.822;2024-03-02T10:14:07;16.00;;;13.07;;
6757;SDS011;3416;53.074;8.822;2024-03-02T10:16:35;16.33;;;11.97;;
6757;SDS011;3416;53.074;8.822;2024-03-02T10:21:45;13.90;;;11.57;;
6757;SDS011;3416;53.074;8.822;2024-03-02T10:24:14;13.00;;;10.47;;
6757;SDS011;3416;53.074;8.822;2024-03-02T10:26:41;14.87;;;11.20;;
6757;SDS011;3416;53.074;8.822;2024-03-02T10:29:08;13.80;;;11.70;;
6757;SDS011;3416;53.074;8.822;2024-03-02T10:31:36;14.03;;;11.60;;
6757;SDS011;3416;53.074;8.822;2024-03-02T10:34:04;17.20;;;12.10;;
6757;SDS011;3416;53.074;8.822;2024-03-02T10:36:31;11.70;;;10.23;;
6757;SDS011;3416;53.074;8.822;2024-03-02T10:39:00;15.23;;;10.90;;
6757;SDS011;3416;53.074;8.822;2024-03-02T10:41:30;12.77;;;10.87;;
6757;SDS011;3416;53.074;8.822;2024-03-02T10:44:01;11.80;;;9.67;;
6757;SDS011;3416;53.074;8.822;2024-03-02T10:46:29;13.50;;;9.80;;
6757;SDS011;3416;53.074;8.822;2024-03-02T10:48:58;12.67;;;11.23;;
6757;SDS011;3416;53.074;8.822;2024-03-02T10:51:26;14.70;;;10.23;;
6757;SDS011;3416;53.074;8.822;2024-03-02T10:53:57;13.13;;;10.10;;
6757;SDS011;3416;53.074;8.822;2024-03-02T10:56:27;13.37;;;9.67;;
6757;SDS011;3416;53.074;8.822;2024-03-02T10:58:59;11.73;;;9.77;;
6757;SDS011;3416;53.074;8.822;2024-03-02T11:01:29;16.67;;;11.13;;
6757;SDS011;3416;53.074;8.822;2024-03-02T11:03:58;13.77;;;10.57;;
6757;SDS011;3416;53.074;8.822;2024-03-02T11:06:28;12.07;;;8.90;;
6757;SDS011;3416;53.074;8.822;2024-03-02T11:08:58;13.80;;;10.30;;
6757;SDS011;3416;53.074;8.822;2024-03-02T11:11:29;11.60;;;9.50;;
6757;SDS011;3416;53.074;8.822;2024-03-02T11:14:01;12.47;;;8.90;;
6757;SDS011;3416;53.074;8.822;2024-03-02T11:16:34;14.30;;;9.93;;
6757;SDS011;3416;53.074;8.822;2024-03-02T11:19:02;10.63;;;8.50;;
6757;SDS011;3416;53.074;8.822;2024-03-02T11:21:32;11.40;;;8.17;;
6757;SDS011;3416;53.074;8.822;2024-03-02T11:23:59;12.70;;;7.23;;
6757;SDS011;3416;53.074;8.822;2024-03-02T11:26:27;13.53;;;8.90;;
6757;SDS011;3416;53.074;8.822;2024-03-02T11:28:54;11.20;;;7.97;;
6757;SDS011;3416;53.074;8.822;2024-03-02T11:31:38;12.40;;;8.97;;
6757;SDS011;3416;53.074;8.822;2024-03-02T11:34:28;14.23;;;10.13;;
6757;SDS011;3416;53.074;8.822;2024-03-02T11:36:55;13.63;;;7.93;;
6757;SDS011;3416;53.074;8.822;2024-03-02T11:39:24;10.73;;;8.30;;
6757;SDS011;3416;53.074;8.822;2024-03-02T11:41:51;11.37;;;7.93;;
6757;SDS011;3416;53.074;8.822;2024-03-02T11:44:17;10.90;;;8.40;;
6757;SDS011;3416;53.074;8.822;2024-03-02T11:46:46;11.40;;;8.33;;
6757;SDS011;3416;53.074;8.822;2024-03-02T11:49:20;10.17;;;8.03;;
6757;SDS011;3416;53.074;8.822;2024-03-02T11:52:03;10.68;;;8.07;;
6757;SDS011;3416;53.074;8.822;2024-03-02T11:54:32;11.35;;;9.38;;
6757;SDS011;3416;53.074;8.822;2024-03-02T11:57:01;10.30;;;8.63;;
6757;SDS011;3416;53.074;8.822;2024-03-02T11:59:29;13.45;;;7.75;;
6757;SDS011;3416;53.074;8.822;2024-03-02T12:01:58;8.88;;;7.38;;
6757;SDS011;3416;53.074;8.822;2024-03-02T12:04:25;10.90;;;8.13;;
6757;SDS011;3416;53.074;8.822;2024-03-02T12:06:56;11.67;;;8.13;;
6757;SDS011;3416;53.074;8.822;2024-03-02T12:09:26;9.70;;;8.07;;
6757;SDS011;3416;53.074;8.822;2024-03-02T12:12:03;10.50;;;8.17;;
6757;SDS011;3416;53.074;8.822;2024-03-02T12:14:31;9.60;;;8.07;;
6757;SDS011;3416;53.074;8.822;2024-03-02T12:16:59;11.80;;;8.90;;
6757;SDS011;3416;53.074;8.822;2024-03-02T12:19:26;8.27;;;6.93;;
6757;SDS011;3416;53.074;8.822;2024-03-02T12:21:55;8.20;;;6.63;;
6757;SDS011;3416;53.074;8.822;2024-03-02T12:24:23;7.30;;;6.43;;
6757;SDS011;3416;53.074;8.822;2024-03-02T12:26:50;7.43;;;6.63;;
6757;SDS011;3416;53.074;8.822;2024-03-02T12:29:18;12.70;;;7.38;;
6757;SDS011;3416;53.074;8.822;2024-03-02T12:31:47;8.65;;;6.60;;
6757;SDS011;3416;53.074;8.822;2024-03-02T12:34:16;10.32;;;7.57;;
6757;SDS011;3416;53.074;8.822;2024-03-02T12:36:45;14.32;;;8.70;;
6757;SDS011;3416;53.074;8.822;2024-03-02T12:39:15;7.80;;;6.45;;
6757;SDS011;3416;53.074;8.822;2024-03-02T12:41:42;9.80;;;6.78;;
6757;SDS011;3416;53.074;8.822;2024-03-02T12:44:09;11.45;;;7.68;;
6757;SDS011;3416;53.074;8.822;2024-03-02T12:46:36;12.88;;;7.55;;
6757;SDS011;3416;53.074;8.822;2024-03-02T12:49:10;9.18;;;6.85;;
6757;SDS011;3416;53.074;8.822;2024-03-02T12:51:40;8.48;;;6.53;;
6757;SDS011;3416;53.074;8.822;2024-03-02T12:54:08;9.27;;;6.85;;
6757;SDS011;3416;53.074;8.822;2024-03-02T12:56:35;11.38;;;7.60;;
6757;SDS011;3416;53.074;8.822;2024-03-02T12:59:03;7.67;;;6.50;;
6757;SDS011;3416;53.074;8.822;2024-03-02T13:01:31;7.80;;;5.63;;
6757;SDS011;3416;53.074;8.822;2024-03-02T13:03:58;13.65;;;6.90;;
6757;SDS011;3416;53.074;8.822;2024-03-02T13:06:25;8.45;;;6.55;;
6757;SDS011;3416;53.074;8.822;2024-03-02T13:08:55;8.70;;;6.53;;
6757;SDS011;3416;53.074;8.822;2024-03-02T13:11:22;10.05;;;8.13;;
6757;SDS011;3416;53.074;8.822;2024-03-02T13:13:50;8.63;;;7.38;;
6757;SDS011;3416;53.074;8.822;2024-03-02T13:16:17;11.15;;;8.93;;
6757;SDS011;3416;53.074;8.822;2024-03-02T13:18:45;10.23;;;8.68;;
6757;SDS011;3416;53.074;8.822;2024-03-02T13:21:12;11.18;;;8.43;;
6757;SDS011;3416;53.074;8.822;2024-03-02T13:23:39;9.00;;;8.10;;
6757;SDS011;3416;53.074;8.822;2024-03-02T13:26:08;10.63;;;8.15;;
6757;SDS011;3416;53.074;8.822;2024-03-02T13:28:37;9.73;;;7.80;;
6757;SDS011;3416;53.074;8.822;2024-03-02T13:31:04;8.40;;;7.50;;
6757;SDS011;3416;53.074;8.822;2024-03-02T13:33:32;8.57;;;6.80;;
6757;SDS011;3416;53.074;8.822;2024-03-02T13:35:59;12.50;;;8.07;;
6757;SDS011;3416;53.074;8.822;2024-03-02T13:38:26;11.30;;;7.97;;
6757;SDS011;3416;53.074;8.822;2024-03-02T13:40:54;11.70;;;8.53;;
6757;SDS011;3416;53.074;8.822;2024-03-02T13:43:22;11.90;;;8.15;;
6757;SDS011;3416;53.074;8.822;2024-03-02T13:45:49;10.80;;;7.50;;
6757;SDS011;3416;53.074;8.822;2024-03-02T13:48:18;10.45;;;7.70;;
6757;SDS011;3416;53.074;8.822;2024-03-02T13:50:45;9.57;;;7.47;;
6757;SDS011;3416;53.074;8.822;2024-03-02T13:53:12;9.18;;;7.80;;
6757;SDS011;3416;53.074;8.822;2024-03-02T13:55:40;10.27;;;7.85;;
6757;SDS011;3416;53.074;8.822;2024-03-02T13:58:08;7.85;;;7.05;;
6757;SDS011;3416;53.074;8.822;2024-03-02T14:00:37;10.02;;;6.85;;
6757;SDS011;3416;53.074;8.822;2024-03-02T14:03:04;9.10;;;6.38;;
6757;SDS011;3416;53.074;8.822;2024-03-02T14:05:32;7.85;;;6.22;;
6757;SDS011;3416;53.074;8.822;2024-03-02T14:07:59;10.38;;;7.28;;
6757;SDS011;3416;53.074;8.822;2024-03-02T14:10:26;7.50;;;6.38;;
6757;SDS011;3416;53.074;8.822;2024-03-02T14:12:54;10.05;;;7.28;;
6757;SDS011;3416;53.074;8.822;2024-03-02T14:15:21;8.80;;;6.03;;
6757;SDS011;3416;53.074;8.822;2024-03-02T14:17:50;9.55;;;6.32;;
6757;SDS011;3416;53.074;8.822;2024-03-02T14:20:17;11.50;;;7.18;;
6757;SDS011;3416;53.074;8.822;2024-03-02T14:22:48;9.17;;;6.03;;
6757;SDS011;3416;53.074;8.822;2024-03-02T14:25:15;9.35;;;6.00;;
6757;SDS011;3416;53.074;8.822;2024-03-02T14:27:44;10.25;;;7.35;;
6757;SDS011;3416;53.074;8.822;2024-03-02T14:30:12;9.85;;;7.15;;
6757;SDS011;3416;53.074;8.822;2024-03-02T14:32:40;11.30;;;7.20;;
6757;SDS011;3416;53.074;8.822;2024-03-02T14:35:08;8.23;;;6.20;;
6757;SDS011;3416;53.074;8.822;2024-03-02T14:37:36;6.95;;;5.60;;
6757;SDS011;3416;53.074;8.822;2024-03-02T14:40:04;9.40;;;6.70;;
6757;SDS011;3416;53.074;8.822;2024-03-02T14:42:34;10.43;;;7.68;;
6757;SDS011;3416;53.074;8.822;2024-03-02T14:47:29;9.95;;;5.63;;
6757;SDS011;3416;53.074;8.822;2024-03-02T14:49:58;8.10;;;5.80;;
6757;SDS011;3416;53.074;8.822;2024-03-02T14:52:26;8.75;;;6.28;;
6757;SDS011;3416;53.074;8.822;2024-03-02T14:54:53;7.35;;;5.07;;
6757;SDS011;3416;53.074;8.822;2024-03-02T14:57:20;7.38;;;5.90;;
6757;SDS011;3416;53.074;8.822;2024-03-02T14:59:47;8.00;;;6.68;;
6757;SDS011;3416;53.074;8.822;2024-03-02T15:02:14;7.65;;;6.45;;
6757;SDS011;3416;53.074;8.822;2024-03-02T15:04:41;6.22;;;4.40;;
6757;SDS011;3416;53.074;8.822;2024-03-02T15:07:09;6.65;;;4.90;;
6757;SDS011;3416;53.074;8.822;2024-03-02T15:09:38;5.88;;;5.20;;